createdAt,value
2023-01-12T00:02:10.978Z,9.40
2023-01-12T00:04:38.883Z,10.10
2023-01-12T00:07:13.386Z,13.10
2023-01-12T00:09:40.896Z,12.70
2023-01-12T00:12:11.331Z,8.40
2023-01-12T00:14:39.744Z,13.40
2023-01-12T00:17:09.229Z,10.00
2023-01-12T00:19:39.099Z,8.90
2023-01-12T00:22:12.075Z,13.20
2023-01-12T00:24:42.460Z,9.30
2023-01-12T00:27:19.358Z,13.00
2023-01-12T00:29:46.938Z,12.10
2023-01-12T00:32:17.078Z,10.30
2023-01-12T00:34:45.467Z,12.40
2023-01-12T00:37:13.575Z,16.90
2023-01-12T00:39:45.897Z,11.00
2023-01-12T00:42:34.774Z,16.20
2023-01-12T00:45:20.387Z,16.30
2023-01-12T00:47:47.827Z,16.80
2023-01-12T00:50:17.389Z,21.00
2023-01-12T00:52:46.633Z,16.80
2023-01-12T00:55:14.250Z,18.50
2023-01-12T00:57:41.693Z,17.30
2023-01-12T01:00:10.000Z,16.50
2023-01-12T01:02:37.607Z,14.80
2023-01-12T01:05:05.259Z,16.90
2023-01-12T01:07:32.714Z,13.90
2023-01-12T01:10:00.046Z,12.60
2023-01-12T01:12:27.522Z,10.30
2023-01-12T01:14:55.019Z,14.40
2023-01-12T01:17:22.343Z,8.10
2023-01-12T01:19:50.617Z,19.20
2023-01-12T01:22:17.867Z,15.50
2023-01-12T01:24:45.522Z,11.10
2023-01-12T01:27:12.792Z,9.30
2023-01-12T01:29:40.327Z,9.00
2023-01-12T01:32:07.945Z,10.90
2023-01-12T01:34:36.552Z,12.40
2023-01-12T01:37:04.017Z,11.10
2023-01-12T01:39:31.363Z,9.20
2023-01-12T01:41:58.811Z,15.30
2023-01-12T01:44:32.332Z,14.00
2023-01-12T01:47:09.813Z,8.90
2023-01-12T01:49:41.995Z,13.40
2023-01-12T01:52:16.151Z,11.10
2023-01-12T01:54:48.230Z,9.10
2023-01-12T01:57:16.073Z,8.00
2023-01-12T01:59:51.117Z,9.10
2023-01-12T02:02:19.027Z,14.00
2023-01-12T02:04:46.750Z,10.60
2023-01-12T02:07:14.160Z,17.10
2023-01-12T02:09:41.647Z,13.50
2023-01-12T02:12:27.606Z,10.90
2023-01-12T02:15:14.274Z,13.50
2023-01-12T02:17:53.791Z,10.50
2023-01-12T02:20:47.199Z,9.60
2023-01-12T02:23:53.580Z,10.70
2023-01-12T02:26:30.223Z,11.10
2023-01-12T02:29:25.909Z,11.10
2023-01-12T02:32:11.460Z,7.60
2023-01-12T02:35:06.231Z,8.40
2023-01-12T02:37:47.875Z,11.60
2023-01-12T02:40:34.279Z,6.10
2023-01-12T02:43:13.017Z,8.00
2023-01-12T02:46:19.301Z,10.90
2023-01-12T02:48:54.826Z,5.00
2023-01-12T02:51:32.547Z,5.20
2023-01-12T02:54:04.701Z,11.10
2023-01-12T02:56:41.159Z,6.20
2023-01-12T02:59:14.056Z,12.60
2023-01-12T03:01:42.967Z,10.50
2023-01-12T03:04:11.744Z,11.20
2023-01-12T03:06:45.804Z,3.80
2023-01-12T03:09:17.860Z,11.30
2023-01-12T03:11:49.074Z,13.80
2023-01-12T03:14:17.675Z,7.10
2023-01-12T03:16:44.942Z,9.10
2023-01-12T03:19:22.363Z,7.20
2023-01-12T03:22:00.537Z,6.60
2023-01-12T03:24:36.391Z,7.30
2023-01-12T03:27:12.745Z,2.60
2023-01-12T03:29:50.570Z,8.70
2023-01-12T03:32:20.004Z,8.90
2023-01-12T03:34:47.187Z,10.80
2023-01-12T03:37:50.547Z,8.60
2023-01-12T03:40:23.509Z,5.90
2023-01-12T03:42:53.506Z,7.50
2023-01-12T03:45:20.666Z,12.00
2023-01-12T03:47:52.690Z,7.70
2023-01-12T03:50:29.044Z,9.60
2023-01-12T03:52:57.022Z,7.60
2023-01-12T03:55:27.105Z,10.70
2023-01-12T03:57:55.052Z,6.90
2023-01-12T04:00:23.852Z,8.20
2023-01-12T04:02:51.107Z,5.30
2023-01-12T04:05:18.487Z,11.00
2023-01-12T04:07:45.680Z,4.10
2023-01-12T04:10:12.971Z,7.50
2023-01-12T04:12:40.212Z,5.30
2023-01-12T04:15:07.936Z,8.60
2023-01-12T04:17:35.326Z,12.50
2023-01-12T04:20:03.028Z,8.20
2023-01-12T04:22:45.367Z,6.00
2023-01-12T04:25:13.968Z,5.10
2023-01-12T04:27:45.636Z,8.90
2023-01-12T04:30:13.162Z,12.00
2023-01-12T04:32:40.744Z,8.20
2023-01-12T04:35:08.443Z,5.30
2023-01-12T04:37:35.651Z,11.00
2023-01-12T04:40:02.889Z,9.80
2023-01-12T04:42:49.523Z,4.50
2023-01-12T04:45:16.967Z,6.80
2023-01-12T04:47:44.470Z,4.70
2023-01-12T04:50:11.955Z,10.80
2023-01-12T04:52:39.342Z,6.20
2023-01-12T04:55:07.440Z,4.80
2023-01-12T04:57:35.226Z,11.80
2023-01-12T05:00:03.321Z,5.70
2023-01-12T05:02:30.581Z,9.70
2023-01-12T05:04:57.949Z,7.90
2023-01-12T05:07:25.187Z,5.90
2023-01-12T05:10:11.168Z,5.20
2023-01-12T05:12:38.413Z,3.10
2023-01-12T05:15:06.343Z,8.00
2023-01-12T05:17:33.781Z,5.00
2023-01-12T05:20:01.268Z,7.70
2023-01-12T05:22:28.635Z,10.30
2023-01-12T05:24:55.822Z,7.80
2023-01-12T05:27:23.658Z,6.60
2023-01-12T05:29:52.878Z,7.80
2023-01-12T05:32:20.130Z,3.10
2023-01-12T05:34:47.774Z,4.70
2023-01-12T05:37:14.995Z,6.40
2023-01-12T05:39:42.328Z,6.70
2023-01-12T05:42:28.162Z,4.70
2023-01-12T05:44:55.824Z,4.50
2023-01-12T05:47:23.061Z,1.90
2023-01-12T05:49:50.759Z,6.10
2023-01-12T05:52:18.041Z,4.30
2023-01-12T05:54:45.190Z,5.60
2023-01-12T05:57:12.474Z,6.40
2023-01-12T05:59:39.702Z,5.60
2023-01-12T06:02:07.089Z,6.70
2023-01-12T06:04:34.299Z,5.30
2023-01-12T06:07:01.559Z,7.10
2023-01-12T06:09:28.732Z,2.60
2023-01-12T06:12:14.889Z,6.30
2023-01-12T06:14:42.221Z,6.60
2023-01-12T06:17:09.799Z,6.40
2023-01-12T06:19:37.201Z,6.00
2023-01-12T06:22:04.497Z,5.40
2023-01-12T06:24:31.768Z,5.90
2023-01-12T06:26:59.268Z,5.60
2023-01-12T06:29:26.543Z,5.80
2023-01-12T06:31:54.283Z,9.90
2023-01-12T06:34:21.553Z,4.00
2023-01-12T06:36:50.138Z,3.70
2023-01-12T06:39:17.395Z,3.40
2023-01-12T06:42:19.798Z,5.20
2023-01-12T06:44:48.864Z,9.40
2023-01-12T06:47:16.338Z,7.90
2023-01-12T06:49:43.625Z,7.90
2023-01-12T06:52:11.186Z,3.50
2023-01-12T06:54:38.384Z,4.00
2023-01-12T06:57:05.608Z,3.50
2023-01-12T06:59:32.892Z,6.00
2023-01-12T07:02:00.325Z,4.70
2023-01-12T07:04:27.826Z,2.90
2023-01-12T07:06:55.541Z,2.90
2023-01-12T07:09:22.765Z,8.90
2023-01-12T07:11:49.952Z,4.70
2023-01-12T07:14:17.311Z,3.60
2023-01-12T07:16:44.576Z,6.60
2023-01-12T07:19:11.756Z,5.20
2023-01-12T07:21:39.058Z,4.50
2023-01-12T07:24:06.613Z,6.20
2023-01-12T07:26:33.872Z,9.90
2023-01-12T07:29:01.132Z,5.60
2023-01-12T07:31:28.526Z,3.10
2023-01-12T07:33:55.832Z,6.60
2023-01-12T07:36:23.209Z,7.40
2023-01-12T07:38:50.424Z,8.70
2023-01-12T07:41:36.079Z,5.30
2023-01-12T07:44:03.308Z,2.50
2023-01-12T07:46:30.534Z,2.80
2023-01-12T07:48:58.043Z,6.10
2023-01-12T07:51:25.239Z,4.30
2023-01-12T07:53:52.429Z,5.20
2023-01-12T07:56:19.820Z,3.40
2023-01-12T07:58:48.916Z,5.90
2023-01-12T08:01:16.582Z,5.00
2023-01-12T08:03:43.839Z,6.00
2023-01-12T08:06:11.641Z,6.30
2023-01-12T08:08:38.975Z,10.60
2023-01-12T08:11:09.421Z,6.30
2023-01-12T08:13:38.268Z,5.80
2023-01-12T08:16:12.903Z,3.60
2023-01-12T08:19:09.462Z,7.70
2023-01-12T08:21:45.400Z,7.40
2023-01-12T08:24:20.531Z,7.20
2023-01-12T08:26:53.373Z,7.00
2023-01-12T08:29:30.829Z,2.90
2023-01-12T08:32:03.715Z,2.80
2023-01-12T08:34:34.205Z,3.90
2023-01-12T08:37:06.066Z,3.90
2023-01-12T08:39:35.473Z,5.70
2023-01-12T08:42:03.778Z,10.10
2023-01-12T08:44:35.481Z,4.60
2023-01-12T08:47:04.746Z,8.10
2023-01-12T08:49:34.186Z,2.80
2023-01-12T08:52:01.393Z,3.90
2023-01-12T08:54:28.820Z,3.40
2023-01-12T08:56:56.056Z,3.00
2023-01-12T08:59:23.295Z,9.00
2023-01-12T09:01:50.529Z,3.00
2023-01-12T09:04:17.962Z,10.40
2023-01-12T09:06:46.224Z,5.00
2023-01-12T09:09:17.033Z,2.90
2023-01-12T09:11:45.209Z,5.90
2023-01-12T09:14:14.333Z,2.90
2023-01-12T09:16:42.342Z,3.90
2023-01-12T09:19:10.404Z,6.20
2023-01-12T09:21:39.756Z,4.50
2023-01-12T09:24:07.508Z,4.40
2023-01-12T09:26:42.942Z,7.20
2023-01-12T09:29:12.054Z,4.10
2023-01-12T09:31:41.652Z,4.10
2023-01-12T09:34:09.275Z,4.90
2023-01-12T09:36:38.408Z,5.00
2023-01-12T09:39:09.814Z,5.50
2023-01-12T09:41:58.812Z,3.00
2023-01-12T09:44:48.235Z,4.40
2023-01-12T09:47:30.908Z,3.40
2023-01-12T09:50:11.130Z,3.70
2023-01-12T09:52:59.974Z,3.00
2023-01-12T09:55:37.022Z,7.20
2023-01-12T09:58:31.551Z,6.30
2023-01-12T10:01:01.769Z,6.50
2023-01-12T10:03:41.866Z,2.60
2023-01-12T10:06:15.528Z,6.90
2023-01-12T10:08:52.192Z,3.90
2023-01-12T10:11:38.234Z,3.20
2023-01-12T10:14:31.250Z,6.80
2023-01-12T10:17:27.899Z,4.60
2023-01-12T10:20:09.093Z,7.00
2023-01-12T10:22:39.202Z,3.90
2023-01-12T10:25:38.531Z,4.70
2023-01-12T10:28:15.387Z,7.80
2023-01-12T10:30:43.658Z,3.60
2023-01-12T10:33:19.205Z,7.60
2023-01-12T10:35:57.608Z,6.30
2023-01-12T10:38:29.386Z,4.40
2023-01-12T10:41:19.983Z,2.20
2023-01-12T10:44:26.086Z,3.20
2023-01-12T10:47:09.343Z,2.30
2023-01-12T10:49:36.733Z,8.40
2023-01-12T10:52:30.132Z,5.30
2023-01-12T10:54:58.972Z,3.80
2023-01-12T10:57:26.337Z,5.30
2023-01-12T11:00:00.024Z,3.30
2023-01-12T11:02:42.836Z,6.70
2023-01-12T11:05:38.804Z,4.20
2023-01-12T11:08:28.541Z,7.50
2023-01-12T11:10:55.689Z,6.40
2023-01-12T11:13:33.247Z,5.20
2023-01-12T11:16:20.054Z,9.00
2023-01-12T11:18:56.319Z,6.30
2023-01-12T11:21:27.788Z,3.70
2023-01-12T11:24:01.641Z,2.80
2023-01-12T11:26:49.226Z,4.00
2023-01-12T11:29:33.520Z,4.60
2023-01-12T11:32:08.737Z,3.90
2023-01-12T11:34:40.749Z,7.70
2023-01-12T11:37:18.684Z,3.20
2023-01-12T11:39:52.643Z,3.60
2023-01-12T11:42:43.384Z,6.70
2023-01-12T11:45:20.920Z,5.30
2023-01-12T11:47:56.632Z,5.80
2023-01-12T11:50:33.549Z,3.90
2023-01-12T11:53:05.155Z,6.80
2023-01-12T11:55:59.009Z,3.10
2023-01-12T11:58:51.752Z,3.40
2023-01-12T12:01:18.923Z,5.50
2023-01-12T12:03:56.213Z,3.90
2023-01-12T12:06:38.585Z,4.30
2023-01-12T12:09:15.399Z,4.20
2023-01-12T12:12:08.026Z,4.30
2023-01-12T12:15:23.058Z,6.20
2023-01-12T12:18:15.750Z,9.60
2023-01-12T12:21:12.916Z,4.00
2023-01-12T12:23:43.088Z,4.80
2023-01-12T12:26:12.926Z,3.80
2023-01-12T12:28:51.997Z,5.20
2023-01-12T12:31:38.194Z,1.90
2023-01-12T12:34:14.154Z,6.10
2023-01-12T12:36:59.835Z,3.50
2023-01-12T12:39:56.320Z,4.80
2023-01-12T12:43:15.675Z,3.40
2023-01-12T12:46:16.339Z,3.40
2023-01-12T12:48:49.012Z,3.90
2023-01-12T12:51:17.055Z,4.70
2023-01-12T12:53:47.929Z,5.30
2023-01-12T12:56:21.625Z,4.50
2023-01-12T12:58:56.526Z,1.30
2023-01-12T13:01:23.903Z,5.20
2023-01-12T13:03:52.670Z,10.10
2023-01-12T13:06:26.241Z,5.20
2023-01-12T13:08:55.890Z,3.90
2023-01-12T13:11:53.825Z,3.70
2023-01-12T13:14:25.068Z,4.10
2023-01-12T13:16:55.069Z,2.50
2023-01-12T13:19:34.566Z,1.90
2023-01-12T13:22:32.683Z,2.70
2023-01-12T13:25:23.924Z,3.70
2023-01-12T13:28:00.647Z,2.30
2023-01-12T13:30:30.915Z,4.20
2023-01-12T13:33:16.211Z,4.70
2023-01-12T13:35:47.162Z,4.30
2023-01-12T13:38:20.968Z,2.40
2023-01-12T13:40:56.256Z,5.20
2023-01-12T13:43:38.537Z,4.90
2023-01-12T13:46:35.953Z,2.80
2023-01-12T13:49:04.080Z,3.30
2023-01-12T13:51:39.738Z,5.20
2023-01-12T13:54:14.445Z,5.20
2023-01-12T13:56:42.767Z,4.90
2023-01-12T13:59:20.354Z,6.20
2023-01-12T14:01:49.379Z,3.30
2023-01-12T14:04:20.077Z,5.00
2023-01-12T14:06:57.879Z,3.80
2023-01-12T14:10:13.270Z,5.00
2023-01-12T14:13:03.585Z,7.40
2023-01-12T14:15:54.861Z,1.90
2023-01-12T14:18:42.947Z,4.20
2023-01-12T14:21:26.928Z,4.10
2023-01-12T14:24:08.449Z,0.70
2023-01-12T14:26:35.911Z,2.80
2023-01-12T14:29:03.271Z,2.30
2023-01-12T14:31:39.687Z,1.60
2023-01-12T14:34:19.185Z,2.30
2023-01-12T14:36:46.804Z,5.60
2023-01-12T14:39:21.552Z,1.10
2023-01-12T14:42:10.922Z,3.00
2023-01-12T14:45:07.120Z,6.70
2023-01-12T14:47:35.146Z,3.20
2023-01-12T14:50:28.552Z,1.50
2023-01-12T14:52:55.768Z,3.10
2023-01-12T14:55:26.834Z,4.90
2023-01-12T14:57:57.567Z,4.30
2023-01-12T15:00:28.862Z,2.20
2023-01-12T15:02:58.760Z,4.00
2023-01-12T15:05:31.558Z,2.30
2023-01-12T15:08:20.498Z,4.20
2023-01-12T15:11:15.762Z,3.00
2023-01-12T15:13:42.991Z,1.60
2023-01-12T15:16:28.747Z,1.40
2023-01-12T15:19:14.194Z,3.70
2023-01-12T15:22:02.710Z,2.40
2023-01-12T15:24:51.886Z,1.40
2023-01-12T15:27:22.954Z,1.80
2023-01-12T15:29:50.469Z,1.30
2023-01-12T15:32:45.591Z,2.50
2023-01-12T15:35:21.492Z,0.60
2023-01-12T15:37:51.849Z,1.50
2023-01-12T15:40:19.720Z,2.30
2023-01-12T15:42:48.187Z,1.10
2023-01-12T15:45:39.436Z,1.00
2023-01-12T15:48:07.084Z,1.60
2023-01-12T15:50:37.839Z,2.90
2023-01-12T15:53:34.276Z,1.10
2023-01-12T15:56:01.447Z,1.20
2023-01-12T15:58:31.095Z,2.30
2023-01-12T16:00:59.266Z,0.70
2023-01-12T16:03:57.354Z,3.30
2023-01-12T16:06:13.655Z,1.90
2023-01-12T16:08:40.924Z,1.40
2023-01-12T16:11:19.383Z,1.00
2023-01-12T16:13:48.182Z,1.50
2023-01-12T16:16:16.651Z,1.20
2023-01-12T16:18:44.661Z,0.30
2023-01-12T16:21:22.799Z,0.50
2023-01-12T16:23:50.115Z,2.30
2023-01-12T16:26:17.576Z,0.80
2023-01-12T16:28:44.892Z,2.50
2023-01-12T16:31:14.206Z,2.60
2023-01-12T16:33:42.751Z,3.10
2023-01-12T16:36:10.747Z,1.30
2023-01-12T16:38:38.110Z,1.20
2023-01-12T16:41:31.444Z,1.20
2023-01-12T16:43:58.946Z,2.30
2023-01-12T16:46:26.133Z,0.30
2023-01-12T16:48:55.473Z,1.60
2023-01-12T16:51:22.970Z,1.10
2023-01-12T16:53:52.118Z,0.40
2023-01-12T16:56:19.615Z,1.20
2023-01-12T16:58:50.020Z,0.70
2023-01-12T17:01:21.493Z,0.40
2023-01-12T17:03:51.054Z,1.30
2023-01-12T17:06:21.567Z,0.80
2023-01-12T17:08:49.699Z,0.90
2023-01-12T17:11:21.790Z,3.90
2023-01-12T17:13:53.398Z,1.20
2023-01-12T17:16:22.326Z,3.70
2023-01-12T17:18:54.502Z,2.00
2023-01-12T17:21:22.393Z,2.50
2023-01-12T17:23:49.877Z,2.20
2023-01-12T17:26:20.858Z,0.80
2023-01-12T17:28:58.592Z,1.10
2023-01-12T17:31:29.168Z,1.30
2023-01-12T17:33:56.796Z,1.50
2023-01-12T17:36:24.049Z,0.40
2023-01-12T17:38:51.258Z,1.70
2023-01-12T17:41:36.880Z,1.30
2023-01-12T17:44:05.491Z,0.90
2023-01-12T17:46:33.395Z,0.80
2023-01-12T17:49:10.962Z,1.00
2023-01-12T17:51:39.238Z,1.40
2023-01-12T17:54:08.833Z,5.20
2023-01-12T17:56:36.220Z,2.50
2023-01-12T17:59:04.161Z,0.50
2023-01-12T18:01:33.817Z,1.50
2023-01-12T18:04:01.520Z,0.50
2023-01-12T18:06:29.180Z,1.30
2023-01-12T18:08:57.344Z,1.20
2023-01-12T18:11:29.424Z,0.90
2023-01-12T18:13:57.789Z,3.40
2023-01-12T18:16:25.367Z,0.20
2023-01-12T18:18:53.500Z,0.20
2023-01-12T18:22:07.300Z,0.20
2023-01-12T18:24:35.381Z,0.90
2023-01-12T18:27:03.136Z,0.60
2023-01-12T18:29:30.417Z,2.20
2023-01-12T18:31:57.718Z,1.10
2023-01-12T18:34:24.994Z,0.60
2023-01-12T18:36:52.343Z,0.70
2023-01-12T18:39:22.905Z,2.00
2023-01-12T18:42:09.490Z,1.40
2023-01-12T18:44:38.463Z,0.30
2023-01-12T18:47:24.773Z,1.00
2023-01-12T18:49:54.405Z,0.40
2023-01-12T18:52:39.785Z,0.50
2023-01-12T18:55:07.590Z,0.70
2023-01-12T18:57:35.695Z,1.50
2023-01-12T19:00:18.183Z,0.60
2023-01-12T19:02:45.971Z,0.70
2023-01-12T19:05:25.638Z,0.80
2023-01-12T19:07:59.071Z,0.60
2023-01-12T19:10:28.023Z,1.80
2023-01-12T19:13:15.524Z,0.90
2023-01-12T19:16:01.456Z,3.10
2023-01-12T19:18:29.053Z,2.20
2023-01-12T19:21:22.433Z,0.70
2023-01-12T19:24:08.251Z,1.70
2023-01-12T19:26:53.866Z,2.20
2023-01-12T19:29:21.089Z,1.10
2023-01-12T19:31:48.804Z,0.40
2023-01-12T19:34:16.032Z,0.40
2023-01-12T19:36:43.395Z,0.60
2023-01-12T19:39:11.412Z,2.70
2023-01-12T19:41:56.938Z,0.40
2023-01-12T19:44:24.132Z,0.40
2023-01-12T19:46:51.369Z,0.50
2023-01-12T19:49:18.688Z,0.80
2023-01-12T19:51:47.024Z,0.60
2023-01-12T19:54:14.371Z,0.30
2023-01-12T19:56:41.674Z,0.40
2023-01-12T19:59:08.884Z,0.40
2023-01-12T20:01:36.276Z,1.40
2023-01-12T20:04:03.825Z,0.50
2023-01-12T20:06:31.168Z,1.20
2023-01-12T20:08:58.655Z,0.80
2023-01-12T20:11:25.821Z,0.50
2023-01-12T20:13:53.217Z,1.00
2023-01-12T20:16:20.501Z,2.10
2023-01-12T20:18:49.201Z,1.10
2023-01-12T20:21:16.598Z,0.70
2023-01-12T20:23:44.366Z,1.10
2023-01-12T20:26:13.263Z,1.80
2023-01-12T20:28:40.811Z,1.50
2023-01-12T20:31:13.068Z,3.70
2023-01-12T20:33:40.737Z,0.60
2023-01-12T20:36:13.131Z,0.80
2023-01-12T20:38:41.180Z,0.20
2023-01-12T20:41:10.205Z,1.30
2023-01-12T20:43:37.806Z,1.00
2023-01-12T20:46:09.405Z,0.40
2023-01-12T20:48:36.841Z,0.40
2023-01-12T20:51:08.676Z,1.10
2023-01-12T20:53:36.180Z,0.60
2023-01-12T20:56:04.982Z,0.50
2023-01-12T20:58:32.560Z,0.40
2023-01-12T21:01:00.055Z,2.00
2023-01-12T21:03:27.815Z,2.80
2023-01-12T21:05:55.347Z,1.40
2023-01-12T21:08:22.683Z,0.30
2023-01-12T21:10:52.358Z,1.50
2023-01-12T21:13:22.425Z,0.80
2023-01-12T21:15:58.149Z,3.40
2023-01-12T21:18:25.560Z,0.30
2023-01-12T21:20:52.760Z,0.80
2023-01-12T21:23:20.137Z,0.60
2023-01-12T21:25:50.470Z,0.80
2023-01-12T21:28:19.176Z,0.80
2023-01-12T21:30:46.414Z,0.30
2023-01-12T21:33:14.960Z,0.30
2023-01-12T21:35:42.237Z,0.50
2023-01-12T21:38:12.291Z,1.20
2023-01-12T21:40:39.571Z,3.20
2023-01-12T21:43:09.710Z,2.00
2023-01-12T21:45:39.857Z,0.50
2023-01-12T21:48:07.815Z,2.00
2023-01-12T21:50:35.677Z,0.90
2023-01-12T21:53:03.319Z,0.20
2023-01-12T21:55:32.129Z,1.90
2023-01-12T21:58:00.060Z,0.40
2023-01-12T22:00:27.738Z,0.50
2023-01-12T22:02:56.374Z,2.30
2023-01-12T22:05:24.963Z,1.30
2023-01-12T22:07:52.623Z,0.80
2023-01-12T22:10:20.134Z,0.40
2023-01-12T22:12:55.943Z,0.50
2023-01-12T22:15:24.304Z,0.90
2023-01-12T22:17:52.799Z,0.50
2023-01-12T22:20:21.326Z,0.60
2023-01-12T22:22:49.831Z,0.50
2023-01-12T22:25:18.022Z,0.40
2023-01-12T22:27:45.702Z,0.20
2023-01-12T22:30:16.967Z,0.20
2023-01-12T22:32:44.749Z,0.50
2023-01-12T22:35:12.499Z,0.30
2023-01-12T22:37:41.323Z,1.10
2023-01-12T22:40:11.974Z,0.20
2023-01-12T22:42:58.083Z,0.90
2023-01-12T22:45:25.328Z,0.40
2023-01-12T22:47:54.066Z,0.10
2023-01-12T22:50:22.588Z,1.80
2023-01-12T22:52:52.941Z,1.10
2023-01-12T22:55:22.061Z,1.60
2023-01-12T22:57:49.877Z,0.80
2023-01-12T23:00:18.838Z,0.30
2023-01-12T23:03:02.180Z,0.60
2023-01-12T23:05:36.527Z,0.40
2023-01-12T23:08:05.608Z,0.50
2023-01-12T23:10:33.450Z,1.70
2023-01-12T23:13:17.366Z,0.20
2023-01-12T23:15:49.638Z,0.20
2023-01-12T23:18:19.902Z,1.50
2023-01-12T23:20:49.637Z,0.30
2023-01-12T23:23:20.268Z,1.00
2023-01-12T23:25:48.358Z,0.30
2023-01-12T23:28:16.850Z,0.90
2023-01-12T23:30:44.725Z,0.10
2023-01-12T23:33:12.275Z,0.60
2023-01-12T23:35:41.387Z,0.40
2023-01-12T23:38:15.255Z,0.40
2023-01-12T23:40:43.259Z,0.80
2023-01-12T23:43:10.857Z,0.40
2023-01-12T23:45:38.408Z,1.10
2023-01-12T23:48:07.886Z,0.50
2023-01-12T23:50:35.420Z,1.30
2023-01-12T23:53:02.790Z,0.30
2023-01-12T23:55:30.617Z,1.00
2023-01-12T23:57:58.015Z,0.30
